Arctic Village, Alaska
Current Conditions -  °F | °C
As of 4:36 PM on Wednesday 22 Oct 2014 (Local Time) from PFYU Reporting Station
Clear Clear  
Wind Chill: 14°   Ceiling: Unl
Heat Index: 25°   Visibility: 10mi
Dew Point: 12°   Wind: 12mph
Humidity: 59%   Direction: 50°NE
Pressure: 29.73"   Gusts: NA
Location:  68.13°N, 145.54°W
Report Text: PFYU 230036Z 05010KT 10SM CLR M04/M11 A2973 RMK AO1
Loading
Personal Weather Stations






























Interactive Weather Map
Tropical Storm Tracking
New forecast layout! Learn more

10-Day Weather Forecast

Advertisements
Track Severe Weather on mobile